Time;durP1;ratioP1;P1;durP2;ratioP2;P2;SDS_P1;SDS_P2;PMS_P1;PMS_P2;Temp;Humidity;BMP_temperature;BMP_pressure;BME280_temperature;BME280_humidity;BME280_pressure;Samples;Min_cycle;Max_cycle;Signal;HPM_P1;HPM_P2
2022/01/05 00:00:09;;;;;;;2.10;0.70;;;;;;;2.65;97.96;95008.94;2064866;28;20213;-60
2022/01/05 00:01:10;;;;;;;1.02;0.63;;;;;;;2.68;97.67;95001.00;2064755;28;20685;-59
2022/01/05 00:02:12;;;;;;;0.88;0.60;;;;;;;2.68;97.88;95001.81;2063377;28;20213;-59
2022/01/05 00:03:14;;;;;;;0.80;0.60;;;;;;;2.54;97.38;95007.84;2070617;28;20317;-60
2022/01/05 00:04:16;;;;;;;1.10;0.70;;;;;;;2.53;98.09;94998.44;2072828;28;20251;-59
2022/01/05 00:05:18;;;;;;;6.57;0.70;;;;;;;2.54;98.91;95009.59;2072846;28;20205;-59
2022/01/05 00:06:19;;;;;;;0.80;0.60;;;;;;;2.54;99.02;95012.19;2072254;28;20197;-59
2022/01/05 00:07:20;;;;;;;1.38;0.80;;;;;;;2.53;99.31;95010.53;2072469;28;20201;-59
2022/01/05 00:08:25;;;;;;;1.35;0.60;;;;;;;2.02;98.78;94918.09;2072941;28;20201;-59
2022/01/05 00:09:26;;;;;;;1.00;0.60;;;;;;;2.50;98.66;95014.13;2072823;28;20198;-59
2022/01/05 00:10:28;;;;;;;0.80;0.60;;;;;;;2.48;99.09;95005.66;2072854;28;20564;-59
2022/01/05 00:11:29;;;;;;;2.65;0.70;;;;;;;2.60;98.24;95014.38;2072818;28;20205;-59
2022/01/05 00:12:31;;;;;;;0.88;0.60;;;;;;;2.60;98.05;95009.22;2072274;28;20207;-59
2022/01/05 00:13:32;;;;;;;2.17;0.70;;;;;;;2.60;98.49;95004.06;2072722;28;20193;-59
2022/01/05 00:14:34;;;;;;;1.13;0.60;;;;;;;2.56;98.29;95005.16;2072782;28;20521;-59
2022/01/05 00:15:35;;;;;;;0.85;0.63;;;;;;;2.56;98.30;95006.00;2072122;28;20209;-59
2022/01/05 00:16:37;;;;;;;2.20;0.70;;;;;;;2.57;98.33;95002.50;2072071;28;20210;-59
2022/01/05 00:17:38;;;;;;;1.10;0.98;;;;;;;2.54;98.91;95010.44;2071423;28;20225;-59
2022/01/05 00:18:40;;;;;;;0.88;0.60;;;;;;;2.65;98.87;95008.94;2072734;28;20209;-59
2022/01/05 00:19:41;;;;;;;1.98;0.80;;;;;;;2.55;98.75;94991.44;2072841;28;20190;-60
2022/01/05 00:20:43;;;;;;;0.90;0.60;;;;;;;2.64;98.70;95005.50;2072748;28;20240;-59
2022/01/05 00:21:45;;;;;;;0.90;0.60;;;;;;;2.52;97.79;94985.63;2072701;28;20205;-59
2022/01/05 00:22:46;;;;;;;3.15;0.80;;;;;;;2.54;98.69;94992.34;2072236;28;20229;-59
2022/01/05 00:23:48;;;;;;;0.90;0.63;;;;;;;2.67;97.50;95004.50;2071588;28;20205;-59
2022/01/05 00:24:50;;;;;;;1.73;0.60;;;;;;;2.58;98.01;95006.72;2072228;28;20198;-59
2022/01/05 00:25:51;;;;;;;0.80;0.50;;;;;;;2.68;97.78;95003.56;2072677;28;20213;-59
2022/01/05 00:26:53;;;;;;;0.60;0.50;;;;;;;2.40;97.18;94963.94;2072714;28;20206;-59
2022/01/05 00:27:55;;;;;;;0.95;0.50;;;;;;;2.63;98.28;94990.94;2070959;28;20218;-59
2022/01/05 00:28:56;;;;;;;1.00;0.60;;;;;;;2.68;97.91;94990.66;2072546;28;20207;-59
2022/01/05 00:29:58;;;;;;;2.75;0.60;;;;;;;2.67;97.27;94992.41;2072073;28;20202;-59
2022/01/05 00:30:59;;;;;;;0.70;0.60;;;;;;;2.61;97.22;95000.56;2072067;28;20699;-59
2022/01/05 00:32:01;;;;;;;0.70;0.50;;;;;;;2.67;97.98;94991.59;2072435;28;20263;-59
2022/01/05 00:33:03;;;;;;;1.27;0.60;;;;;;;2.66;98.43;94987.34;2071911;28;20279;-59
2022/01/05 00:34:04;;;;;;;0.70;0.50;;;;;;;2.71;98.23;94985.28;2072687;28;20197;-59
2022/01/05 00:35:06;;;;;;;1.80;1.02;;;;;;;2.65;98.17;94980.53;2072734;28;20202;-59
2022/01/05 00:36:07;;;;;;;1.40;0.50;;;;;;;2.69;98.80;94976.81;2072027;28;20202;-59
2022/01/05 00:37:09;;;;;;;0.80;0.60;;;;;;;2.65;97.79;94981.34;2072064;28;20213;-59
2022/01/05 00:38:11;;;;;;;0.60;0.50;;;;;;;2.67;97.33;94976.09;2072259;28;20218;-59
2022/01/05 00:39:12;;;;;;;0.90;0.60;;;;;;;2.65;97.72;94983.09;2072745;28;20529;-59
2022/01/05 00:40:13;;;;;;;0.70;0.50;;;;;;;2.65;96.64;94971.00;2072681;28;20584;-59
2022/01/05 00:41:15;;;;;;;0.70;0.50;;;;;;;2.66;97.78;94977.00;2072771;28;20197;-59
2022/01/05 00:42:16;;;;;;;0.70;0.60;;;;;;;2.63;98.19;94975.44;2072114;28;20207;-59
2022/01/05 00:43:18;;;;;;;0.90;0.60;;;;;;;2.61;98.25;94973.84;2072514;28;20206;-59
2022/01/05 00:44:20;;;;;;;0.70;0.50;;;;;;;2.71;97.85;94977.53;2072496;28;20217;-59
2022/01/05 00:45:21;;;;;;;0.82;0.43;;;;;;;2.64;97.94;94964.16;2072498;28;20206;-59
2022/01/05 00:46:23;;;;;;;0.70;0.50;;;;;;;2.49;98.09;94958.22;2072614;28;20203;-59
2022/01/05 00:47:24;;;;;;;0.95;0.60;;;;;;;2.55;98.18;94954.41;2072137;28;20213;-59
2022/01/05 00:48:29;;;;;;;0.70;0.60;;;;;;;2.58;98.33;94962.78;2072683;28;20198;-59
2022/01/05 00:49:31;;;;;;;0.70;0.50;;;;;;;2.55;98.26;94964.75;2072493;28;20197;-59
2022/01/05 00:50:32;;;;;;;0.70;0.50;;;;;;;2.61;98.12;94966.09;2072690;28;20556;-59
2022/01/05 00:51:34;;;;;;;1.70;0.50;;;;;;;2.57;97.62;94968.91;2072694;28;20198;-59
2022/01/05 00:52:35;;;;;;;0.70;0.50;;;;;;;2.55;97.85;94960.41;2072074;28;20229;-59
2022/01/05 00:53:37;;;;;;;0.80;0.60;;;;;;;2.38;97.89;94938.19;2072414;28;20202;-59
2022/01/05 00:54:40;;;;;;;0.70;0.50;;;;;;;2.63;98.23;94961.69;2072404;28;20194;-59
2022/01/05 00:55:41;;;;;;;0.80;0.50;;;;;;;2.38;97.89;94930.44;2071322;28;20201;-59
2022/01/05 00:56:43;;;;;;;0.80;0.50;;;;;;;2.55;98.01;94968.16;2072585;28;20652;-59
2022/01/05 00:57:45;;;;;;;0.90;0.60;;;;;;;2.64;97.81;94968.50;2071505;28;20214;-59
2022/01/05 00:58:47;;;;;;;0.82;0.50;;;;;;;2.57;98.00;94963.72;2072475;28;20204;-59
2022/01/05 00:59:49;;;;;;;0.68;0.50;;;;;;;2.61;97.22;94953.19;2072523;28;20728;-59
2022/01/05 01:00:50;;;;;;;1.35;0.60;;;;;;;2.64;97.26;94953.00;2072335;28;20205;-59
2022/01/05 01:01:52;;;;;;;0.70;0.50;;;;;;;2.67;97.58;94960.56;2072642;28;20194;-59
2022/01/05 01:02:54;;;;;;;0.70;0.50;;;;;;;2.66;97.72;94966.66;2071727;28;20233;-59
2022/01/05 01:03:55;;;;;;;2.45;0.50;;;;;;;2.68;97.80;94969.97;2072557;28;20201;-59
2022/01/05 01:04:57;;;;;;;0.77;0.60;;;;;;;2.70;97.60;94968.94;2072287;28;20209;-59
2022/01/05 01:06:00;;;;;;;0.70;0.50;;;;;;;2.68;97.39;94969.97;2072392;28;20202;-59
2022/01/05 01:07:01;;;;;;;0.70;0.50;;;;;;;2.64;97.25;94977.09;2072487;28;20206;-59
2022/01/05 01:08:03;;;;;;;1.45;0.60;;;;;;;2.58;97.78;94975.72;2072004;28;20229;-59
2022/01/05 01:09:04;;;;;;;0.80;0.50;;;;;;;2.53;98.08;94972.59;2072134;28;20206;-59
2022/01/05 01:10:06;;;;;;;1.15;0.50;;;;;;;2.58;97.57;94986.03;2072417;28;20234;-59
2022/01/05 01:11:08;;;;;;;0.60;0.50;;;;;;;2.67;97.91;94991.59;2072545;28;20297;-59
2022/01/05 01:12:10;;;;;;;0.80;0.50;;;;;;;2.68;98.09;94985.47;2072289;28;20203;-60
2022/01/05 01:13:14;;;;;;;0.70;0.50;;;;;;;2.56;97.76;94967.22;2071862;28;20219;-59
2022/01/05 01:14:16;;;;;;;0.70;0.50;;;;;;;2.64;97.31;94984.84;2072524;28;20198;-59
2022/01/05 01:15:18;;;;;;;0.60;0.50;;;;;;;2.64;97.25;94981.44;2072346;28;20706;-59
2022/01/05 01:16:20;;;;;;;2.65;0.50;;;;;;;2.66;97.20;94982.16;2072500;28;20198;-59
2022/01/05 01:17:22;;;;;;;1.23;0.50;;;;;;;2.64;97.89;94994.34;2072096;28;20195;-59
2022/01/05 01:18:24;;;;;;;0.68;0.52;;;;;;;2.51;97.49;94973.59;2072295;28;20588;-59
2022/01/05 01:19:25;;;;;;;0.70;0.52;;;;;;;2.69;97.86;94987.97;2072464;28;20204;-59
2022/01/05 01:20:27;;;;;;;0.82;0.60;;;;;;;2.65;98.05;94983.09;2072359;28;20206;-59
2022/01/05 01:21:28;;;;;;;1.00;0.60;;;;;;;2.66;97.49;94985.56;2072127;28;20360;-59
2022/01/05 01:22:31;;;;;;;0.88;0.60;;;;;;;2.74;97.48;94982.50;2071913;28;20213;-59
2022/01/05 01:23:33;;;;;;;3.15;0.50;;;;;;;2.68;97.79;94985.47;2071594;28;20565;-59
2022/01/05 01:24:34;;;;;;;0.80;0.60;;;;;;;2.65;98.06;94988.28;2072158;28;20225;-59
2022/01/05 01:25:36;;;;;;;0.80;0.60;;;;;;;2.66;98.02;94992.50;2072294;28;20202;-59
2022/01/05 01:26:37;;;;;;;0.98;0.50;;;;;;;2.48;98.11;94969.47;2072258;28;20555;-59
2022/01/05 01:27:42;;;;;;;0.80;0.40;;;;;;;2.61;98.23;94995.38;2071737;28;20219;-59
2022/01/05 01:28:45;;;;;;;0.70;0.47;;;;;;;2.61;97.70;94995.38;2071546;28;20648;-60
2022/01/05 01:29:46;;;;;;;0.95;0.52;;;;;;;2.60;98.22;94998.88;2072391;28;20198;-60
2022/01/05 01:30:48;;;;;;;0.70;0.50;;;;;;;2.62;98.83;95002.19;2072390;28;20580;-60
2022/01/05 01:31:50;;;;;;;1.25;0.60;;;;;;;2.69;98.78;95007.84;2070433;28;20201;-60
2022/01/05 01:32:51;;;;;;;0.75;0.50;;;;;;;2.60;99.15;95008.41;2071085;28;20217;-60
2022/01/05 01:33:53;;;;;;;1.15;0.65;;;;;;;2.61;98.42;94994.53;2071441;28;20209;-60
2022/01/05 01:34:54;;;;;;;0.80;0.50;;;;;;;2.79;97.90;95000.31;2072410;28;20571;-60
2022/01/05 01:35:56;;;;;;;0.70;0.50;;;;;;;2.76;97.23;94996.16;2071973;28;20194;-60
2022/01/05 01:36:57;;;;;;;1.00;0.50;;;;;;;2.68;98.33;94995.81;2071721;28;20569;-60
2022/01/05 01:37:59;;;;;;;0.70;0.50;;;;;;;2.64;98.11;94991.78;2071796;28;20232;-60
2022/01/05 01:39:01;;;;;;;0.65;0.50;;;;;;;2.74;97.78;95004.03;2072454;28;20201;-60
2022/01/05 01:40:04;;;;;;;1.30;0.60;;;;;;;2.63;97.69;95003.88;2072181;28;20201;-59
2022/01/05 01:41:06;;;;;;;0.70;0.52;;;;;;;2.66;98.78;95008.00;2071657;28;20555;-59
2022/01/05 01:42:08;;;;;;;0.70;0.50;;;;;;;2.63;98.43;95003.88;2070895;28;20201;-60
2022/01/05 01:43:09;;;;;;;0.70;0.60;;;;;;;2.68;98.73;95006.16;2071739;28;20221;-59
2022/01/05 01:44:11;;;;;;;1.42;0.50;;;;;;;2.68;98.15;95001.00;2072114;28;20197;-60
2022/01/05 01:45:13;;;;;;;0.73;0.50;;;;;;;2.66;98.44;95008.00;2063235;28;20320;-60
2022/01/05 01:46:15;;;;;;;0.70;0.50;;;;;;;2.60;98.78;95008.41;2064066;28;20194;-60
2022/01/05 01:47:17;;;;;;;0.70;0.50;;;;;;;2.62;98.37;95012.53;2078557;28;20817;-59
2022/01/05 01:48:19;;;;;;;0.65;0.50;;;;;;;2.60;98.62;95008.41;2072323;28;20201;-59
2022/01/05 01:49:20;;;;;;;0.80;0.65;;;;;;;2.56;98.58;94998.25;2069201;28;20197;-60
2022/01/05 01:50:22;;;;;;;0.68;0.50;;;;;;;2.38;99.13;94969.22;2072188;28;20194;-60
2022/01/05 01:51:23;;;;;;;1.58;0.80;;;;;;;2.61;98.60;95007.47;2072187;28;20426;-59
2022/01/05 01:52:25;;;;;;;0.70;0.50;;;;;;;2.62;98.91;95009.94;2071791;28;20521;-59
2022/01/05 01:53:26;;;;;;;1.05;0.52;;;;;;;2.67;98.61;95009.69;2063566;28;20613;-59
2022/01/05 01:54:28;;;;;;;1.42;0.57;;;;;;;2.66;98.96;95003.66;2061883;28;20198;-59
2022/01/05 01:55:30;;;;;;;1.27;0.70;;;;;;;2.65;99.05;95022.69;2071533;28;20715;-60
2022/01/05 01:56:34;;;;;;;1.05;0.50;;;;;;;2.62;98.71;95019.47;2055328;28;20783;-60
2022/01/05 01:57:38;;;;;;;0.73;0.50;;;;;;;2.65;98.88;95014.13;2062865;28;20699;-59
2022/01/05 01:58:40;;;;;;;0.80;0.50;;;;;;;2.64;98.46;95020.19;2071123;28;20190;-59
2022/01/05 01:59:42;;;;;;;0.80;0.50;;;;;;;2.57;98.72;95009.44;2071468;28;20200;-60
2022/01/05 02:00:44;;;;;;;0.90;0.70;;;;;;;2.62;99.13;95022.88;2068975;28;20212;-59
2022/01/05 02:01:47;;;;;;;0.60;0.50;;;;;;;2.63;98.93;95009.03;2062725;28;20199;-60
2022/01/05 02:02:50;;;;;;;0.70;0.50;;;;;;;2.62;98.93;95009.13;2062417;28;20243;-59
2022/01/05 02:03:52;;;;;;;0.90;0.50;;;;;;;2.69;98.74;95015.59;2071025;28;20200;-60
2022/01/05 02:04:54;;;;;;;0.60;0.40;;;;;;;2.68;98.30;95024.25;2070950;28;20298;-59
2022/01/05 02:05:56;;;;;;;2.05;0.77;;;;;;;2.61;98.63;95029.00;2071599;28;20670;-60
2022/01/05 02:06:58;;;;;;;1.50;0.60;;;;;;;2.65;99.16;95027.06;2062781;28;20203;-59
2022/01/05 02:08:01;;;;;;;0.80;0.50;;;;;;;2.60;99.00;95029.91;2062739;28;20230;-59
2022/01/05 02:09:04;;;;;;;1.00;0.50;;;;;;;2.66;98.93;95036.44;2071138;28;20193;-60
2022/01/05 02:10:08;;;;;;;1.08;0.50;;;;;;;2.62;99.17;95034.97;2051016;28;20199;-59
2022/01/05 02:11:12;;;;;;;0.95;0.60;;;;;;;2.51;98.48;95007.19;2060361;28;20199;-60
2022/01/05 02:12:14;;;;;;;0.80;0.50;;;;;;;2.69;98.26;95033.69;2078639;28;20212;-59
2022/01/05 02:13:17;;;;;;;0.80;0.60;;;;;;;2.69;99.01;95033.69;2071292;28;20294;-59
2022/01/05 02:14:18;;;;;;;0.60;0.50;;;;;;;2.68;99.00;95026.84;2071679;28;20206;-59
2022/01/05 02:15:21;;;;;;;0.80;0.50;;;;;;;2.61;98.80;95017.78;2069949;28;20198;-59
2022/01/05 02:16:30;;;;;;;2.35;0.50;;;;;;;2.66;98.42;95019.16;2071728;28;20206;-59
2022/01/05 02:17:46;;;;;;;2.00;0.60;;;;;;;2.69;98.99;95021.56;2061541;28;20533;-59
2022/01/05 02:18:59;;;;;;;1.00;0.60;;;;;;;2.74;98.84;95021.28;2066310;28;20228;-59
2022/01/05 02:20:01;;;;;;;1.23;0.70;;;;;;;2.70;99.08;95023.22;2058771;28;20346;-59
2022/01/05 02:21:06;;;;;;;1.45;0.63;;;;;;;2.73;99.10;95027.38;2065176;28;20277;-59
2022/01/05 02:22:08;;;;;;;0.70;0.50;;;;;;;2.76;99.01;95017.69;2071464;28;20665;-59
2022/01/05 02:23:09;;;;;;;0.70;0.50;;;;;;;2.79;98.66;95027.00;2071291;28;20232;-59
2022/01/05 02:24:11;;;;;;;0.90;0.60;;;;;;;2.78;98.53;95020.16;2070799;28;20224;-59
2022/01/05 02:25:13;;;;;;;0.90;0.60;;;;;;;2.75;98.82;95021.19;2070922;28;20238;-59
2022/01/05 02:26:16;;;;;;;7.22;0.70;;;;;;;2.72;99.10;95017.97;2070902;28;20202;-59
2022/01/05 02:27:18;;;;;;;0.70;0.50;;;;;;;2.80;98.70;95026.06;2062563;28;20241;-59
2022/01/05 02:28:19;;;;;;;0.70;0.50;;;;;;;2.77;98.62;95016.75;2063239;28;20205;-59
2022/01/05 02:29:21;;;;;;;1.77;0.63;;;;;;;2.76;99.07;95025.44;2062982;28;20198;-59
2022/01/05 02:30:26;;;;;;;2.05;1.08;;;;;;;2.79;98.89;95014.06;2063209;28;20241;-60
2022/01/05 02:31:28;;;;;;;1.77;0.60;;;;;;;2.82;98.49;95021.63;2063777;28;20195;-60
2022/01/05 02:32:30;;;;;;;1.17;0.50;;;;;;;2.82;98.88;95023.38;2061852;28;20191;-59
2022/01/05 02:33:32;;;;;;;0.70;0.50;;;;;;;2.97;98.26;95022.41;2063342;28;20195;-60
2022/01/05 02:34:34;;;;;;;0.80;0.55;;;;;;;2.89;98.62;95025.50;2063288;28;20214;-59
2022/01/05 02:35:36;;;;;;;0.90;0.60;;;;;;;2.85;98.86;95031.78;2055205;28;20200;-59
2022/01/05 02:36:38;;;;;;;0.70;0.50;;;;;;;2.84;98.53;95017.19;2053519;28;20199;-59
2022/01/05 02:37:51;;;;;;;0.90;0.52;;;;;;;2.92;98.36;95030.47;2062857;28;20230;-59
2022/01/05 02:38:53;;;;;;;0.80;0.50;;;;;;;3.03;97.88;95021.19;2076762;28;20189;-60
2022/01/05 02:39:55;;;;;;;0.80;0.50;;;;;;;2.91;97.88;95008.13;2063042;28;20198;-59
2022/01/05 02:41:06;;;;;;;0.70;0.60;;;;;;;2.90;98.07;95024.56;2063550;28;20891;-59
2022/01/05 02:42:08;;;;;;;1.23;0.50;;;;;;;2.97;98.53;95041.34;2062876;28;20202;-59
2022/01/05 02:43:10;;;;;;;1.05;0.50;;;;;;;2.93;98.50;95028.72;2061244;28;20277;-59
2022/01/05 02:44:11;;;;;;;0.90;0.50;;;;;;;2.91;98.55;95031.41;2063334;28;20252;-59
2022/01/05 02:45:14;;;;;;;1.40;0.60;;;;;;;2.92;98.79;95027.91;2055299;28;20211;-59
2022/01/05 02:46:19;;;;;;;1.40;0.55;;;;;;;2.90;98.82;95024.56;2063352;28;20195;-59
2022/01/05 02:47:21;;;;;;;1.90;0.60;;;;;;;2.82;99.07;95029.38;2078635;28;20240;-59
2022/01/05 02:48:22;;;;;;;0.70;0.50;;;;;;;2.87;99.39;95032.50;2072288;28;20241;-59
2022/01/05 02:49:23;;;;;;;4.70;0.50;;;;;;;2.90;99.08;95047.84;2072678;28;20197;-60
2022/01/05 02:50:25;;;;;;;2.65;0.50;;;;;;;2.87;98.91;95040.28;2072746;28;20206;-59
2022/01/05 02:51:27;;;;;;;0.77;0.60;;;;;;;2.94;98.80;95045.88;2073317;28;20205;-59
2022/01/05 02:52:29;;;;;;;0.70;0.60;;;;;;;2.98;98.98;95039.63;2073005;28;20255;-59
2022/01/05 02:53:30;;;;;;;0.60;0.40;;;;;;;2.97;98.72;95033.59;2072842;28;20586;-59
2022/01/05 02:54:32;;;;;;;0.80;0.50;;;;;;;2.93;98.90;95036.47;2073424;28;20202;-59
2022/01/05 02:55:33;;;;;;;0.70;0.50;;;;;;;2.89;99.46;95042.78;2064403;28;20230;-59
2022/01/05 02:56:35;;;;;;;0.90;0.50;;;;;;;2.85;98.83;95036.97;2064773;28;20194;-60
2022/01/05 02:57:37;;;;;;;1.30;0.60;;;;;;;2.76;99.08;95003.91;2063795;28;20557;-59
2022/01/05 02:58:39;;;;;;;2.88;0.55;;;;;;;2.89;98.97;95042.78;2064604;28;20199;-59
2022/01/05 02:59:41;;;;;;;0.70;0.50;;;;;;;2.90;98.55;95037.50;2073303;28;20673;-59
2022/01/05 03:00:42;;;;;;;0.68;0.50;;;;;;;2.93;98.25;95032.13;2064757;28;20281;-60
2022/01/05 03:01:44;;;;;;;0.60;0.50;;;;;;;2.92;98.12;95033.06;2056915;28;20202;-59
2022/01/05 03:02:46;;;;;;;0.65;0.50;;;;;;;2.98;97.57;95037.03;2072046;28;20230;-59
2022/01/05 03:03:48;;;;;;;0.70;0.55;;;;;;;2.97;98.27;95035.34;2064573;28;20234;-60
2022/01/05 03:04:50;;;;;;;0.80;0.50;;;;;;;3.02;97.88;95041.06;2057063;28;20202;-59
2022/01/05 03:05:52;;;;;;;0.68;0.50;;;;;;;2.91;97.43;95023.63;2071981;28;20216;-59
2022/01/05 03:06:53;;;;;;;0.70;0.50;;;;;;;2.92;97.62;95022.72;2073305;28;20717;-59
2022/01/05 03:07:55;;;;;;;1.50;0.50;;;;;;;2.96;97.68;95039.69;2072645;28;20605;-59
2022/01/05 03:08:56;;;;;;;2.25;0.50;;;;;;;2.97;98.08;95043.13;2073356;28;20193;-59
2022/01/05 03:09:57;;;;;;;0.70;0.60;;;;;;;2.94;98.23;95041.56;2073327;28;20202;-59
2022/01/05 03:10:59;;;;;;;0.70;0.50;;;;;;;3.04;97.58;95044.38;2073286;28;20657;-59
2022/01/05 03:12:01;;;;;;;0.60;0.40;;;;;;;3.01;97.62;95028.22;2072573;28;20584;-59
2022/01/05 03:13:03;;;;;;;0.70;0.50;;;;;;;3.01;97.33;95049.75;2071834;28;20234;-59
2022/01/05 03:14:04;;;;;;;0.65;0.45;;;;;;;3.01;97.34;95049.75;2072393;28;20209;-59
2022/01/05 03:15:07;;;;;;;0.70;0.50;;;;;;;2.99;97.37;95045.59;2073178;28;20662;-59
2022/01/05 03:16:09;;;;;;;0.82;0.60;;;;;;;3.00;97.65;95060.19;2073256;28;20206;-59
2022/01/05 03:17:10;;;;;;;0.73;0.50;;;;;;;3.05;97.05;95058.16;2073370;28;20524;-59
2022/01/05 03:18:12;;;;;;;1.10;0.52;;;;;;;3.02;97.29;95048.84;2072785;28;20229;-59
2022/01/05 03:19:14;;;;;;;0.70;0.50;;;;;;;3.04;97.38;95053.88;2073237;28;20600;-59
2022/01/05 03:20:19;;;;;;;0.75;0.57;;;;;;;2.95;97.01;95045.78;2073030;28;20224;-59
2022/01/05 03:21:21;;;;;;;0.70;0.50;;;;;;;2.99;96.77;95050.78;2073144;28;20633;-59
2022/01/05 03:22:22;;;;;;;0.70;0.50;;;;;;;3.01;97.82;95052.34;2071457;28;20201;-59
2022/01/05 03:23:24;;;;;;;2.42;0.60;;;;;;;2.96;96.83;95041.47;2073065;28;20198;-59
2022/01/05 03:24:25;;;;;;;0.70;0.68;;;;;;;2.97;97.04;95043.94;2073405;28;20203;-59
2022/01/05 03:25:27;;;;;;;0.70;0.50;;;;;;;3.00;97.13;95044.66;2072817;28;20206;-59
2022/01/05 03:26:29;;;;;;;1.13;0.55;;;;;;;3.02;97.09;95050.56;2073086;28;20357;-59
2022/01/05 03:27:30;;;;;;;0.70;0.50;;;;;;;3.06;96.79;95041.69;2072524;28;20217;-59
2022/01/05 03:28:31;;;;;;;0.63;0.50;;;;;;;3.01;96.90;95043.75;2072854;28;20228;-59
2022/01/05 03:29:33;;;;;;;0.70;0.50;;;;;;;3.03;97.15;95047.06;2073152;28;20211;-59
2022/01/05 03:30:35;;;;;;;5.15;0.80;;;;;;;2.97;96.80;95037.94;2073147;28;20882;-59
2022/01/05 03:31:37;;;;;;;0.60;0.40;;;;;;;2.92;96.82;95033.06;2073069;28;20194;-57
2022/01/05 03:32:54;;;;;;;0.80;0.50;;;;;;;2.91;96.94;95036.56;2071928;28;20221;-57
2022/01/05 03:33:55;;;;;;;3.03;0.63;;;;;;;2.97;97.37;95049.09;2072253;28;20201;-58
2022/01/05 03:34:57;;;;;;;0.80;0.50;;;;;;;3.01;96.95;95051.50;2073021;28;20198;-57
2022/01/05 03:35:58;;;;;;;0.70;0.50;;;;;;;2.97;97.24;95049.09;2073112;28;20637;-57
2022/01/05 03:37:00;;;;;;;0.60;0.45;;;;;;;3.03;97.15;95052.25;2073090;28;20663;-58
2022/01/05 03:38:03;;;;;;;0.70;0.60;;;;;;;3.00;97.43;95044.66;2072611;28;20244;-58
2022/01/05 03:39:04;;;;;;;1.20;0.57;;;;;;;3.03;97.37;95047.06;2073186;28;20212;-58
2022/01/05 03:40:06;;;;;;;2.10;0.60;;;;;;;2.99;97.26;95040.44;2072772;28;20201;-58
2022/01/05 03:41:08;;;;;;;0.90;0.60;;;;;;;2.97;96.48;95043.94;2072973;28;20197;-58
2022/01/05 03:42:09;;;;;;;0.98;0.50;;;;;;;3.01;96.71;95049.75;2071922;28;20657;-58
2022/01/05 03:43:12;;;;;;;0.77;0.55;;;;;;;3.02;97.07;95042.81;2072498;28;20786;-58
2022/01/05 03:44:13;;;;;;;1.05;0.47;;;;;;;3.08;96.36;95045.84;2072968;28;20197;-58
2022/01/05 03:45:15;;;;;;;2.40;0.68;;;;;;;3.01;96.62;95038.56;2072921;28;20234;-58
2022/01/05 03:46:16;;;;;;;0.90;0.60;;;;;;;3.07;96.83;95045.94;2072728;28;20201;-58
2022/01/05 03:47:18;;;;;;;3.40;0.60;;;;;;;3.02;96.17;95043.66;2072489;28;20234;-58
2022/01/05 03:48:20;;;;;;;0.80;0.60;;;;;;;3.07;96.21;95056.28;2073013;28;20209;-58
2022/01/05 03:49:21;;;;;;;2.95;0.80;;;;;;;3.09;96.31;95047.50;2072929;28;20202;-58
2022/01/05 03:50:23;;;;;;;0.68;0.50;;;;;;;3.10;96.31;95058.69;2072939;28;20201;-58
2022/01/05 03:51:24;;;;;;;0.70;0.50;;;;;;;3.08;95.86;95053.63;2072867;28;20201;-58
2022/01/05 03:52:26;;;;;;;1.20;0.60;;;;;;;3.14;96.58;95060.16;2072351;28;20641;-58
2022/01/05 03:53:27;;;;;;;3.25;0.65;;;;;;;3.11;97.14;95066.34;2072807;28;20205;-58
2022/01/05 03:54:29;;;;;;;1.25;0.50;;;;;;;3.08;97.45;95068.31;2072677;28;20206;-58
2022/01/05 03:55:33;;;;;;;0.70;0.50;;;;;;;2.78;97.21;95017.56;2072536;28;20197;-58
2022/01/05 03:56:34;;;;;;;0.80;0.60;;;;;;;3.10;96.81;95066.47;2072616;28;20653;-58
2022/01/05 03:57:36;;;;;;;0.80;0.60;;;;;;;3.12;97.62;95067.19;2072375;28;20275;-58
2022/01/05 03:58:37;;;;;;;0.70;0.50;;;;;;;3.08;97.51;95066.53;2072121;28;20206;-58
2022/01/05 03:59:39;;;;;;;1.10;0.60;;;;;;;3.09;98.06;95072.53;2071344;28;20194;-58
2022/01/05 04:00:46;;;;;;;0.70;0.50;;;;;;;3.12;97.88;95074.94;2072795;28;20194;-58
2022/01/05 04:01:48;;;;;;;0.70;0.60;;;;;;;3.10;98.14;95069.88;2072176;28;20205;-57
2022/01/05 04:02:50;;;;;;;0.90;0.70;;;;;;;3.14;98.67;95071.31;2071549;28;20236;-58
2022/01/05 04:03:51;;;;;;;0.90;0.60;;;;;;;3.09;99.35;95080.31;2071006;28;20194;-58
2022/01/05 04:04:53;;;;;;;0.80;0.50;;;;;;;3.06;99.28;95080.47;2072842;28;20255;-58
2022/01/05 04:05:54;;;;;;;1.83;0.60;;;;;;;2.82;98.92;95050.06;2072620;28;20205;-57
2022/01/05 04:06:55;;;;;;;1.00;0.65;;;;;;;3.04;99.50;95095.28;2072798;28;20198;-58
2022/01/05 04:07:57;;;;;;;0.70;0.50;;;;;;;3.05;99.75;95091.78;2072250;28;20240;-58
2022/01/05 04:08:59;;;;;;;0.65;0.50;;;;;;;3.05;99.82;95096.94;2072745;28;20285;-58
2022/01/05 04:10:00;;;;;;;0.70;0.50;;;;;;;3.05;100.00;95094.34;2072440;28;20619;-58
2022/01/05 04:11:02;;;;;;;0.90;0.60;;;;;;;3.02;100.00;95097.97;2072812;28;20201;-58
2022/01/05 04:12:04;;;;;;;0.70;0.50;;;;;;;2.97;100.00;95098.25;2072688;28;20194;-58
2022/01/05 04:13:05;;;;;;;0.90;0.50;;;;;;;3.00;100.00;95097.25;2071727;28;20712;-58
2022/01/05 04:14:08;;;;;;;0.82;0.52;;;;;;;3.03;100.00;95109.16;2072703;28;20198;-58
2022/01/05 04:15:10;;;;;;;1.42;0.60;;;;;;;3.05;100.00;95113.28;2072350;28;20206;-58
2022/01/05 04:16:11;;;;;;;2.35;0.60;;;;;;;3.07;100.00;95116.59;2072800;28;20205;-58
2022/01/05 04:17:13;;;;;;;1.08;0.60;;;;;;;3.12;100.00;95124.09;2072723;28;20197;-58
2022/01/05 04:18:14;;;;;;;0.70;0.60;;;;;;;3.06;100.00;95129.63;2072226;28;20260;-58
2022/01/05 04:19:16;;;;;;;0.90;0.50;;;;;;;3.09;100.00;95127.69;2072682;28;20236;-58
2022/01/05 04:20:18;;;;;;;0.80;0.55;;;;;;;3.07;100.00;95128.72;2072824;28;20201;-58
2022/01/05 04:21:20;;;;;;;1.00;0.60;;;;;;;3.08;100.00;95133.81;2072667;28;20202;-57
2022/01/05 04:22:22;;;;;;;2.05;0.60;;;;;;;2.63;100.00;95054.75;2072428;28;20772;-58
2022/01/05 04:23:23;;;;;;;1.42;0.60;;;;;;;3.12;100.00;95131.88;2071961;28;20205;-57
2022/01/05 04:24:25;;;;;;;1.08;0.70;;;;;;;3.09;100.00;95139.81;2072012;28;20712;-57
2022/01/05 04:25:26;;;;;;;0.80;0.57;;;;;;;3.10;100.00;95146.66;2072698;28;20495;-58
2022/01/05 04:26:28;;;;;;;1.10;0.68;;;;;;;3.07;100.00;95147.66;2072534;28;20233;-58
2022/01/05 04:27:29;;;;;;;1.23;0.60;;;;;;;3.01;100.00;95142.84;2071325;28;20951;-57
2022/01/05 04:28:31;;;;;;;1.73;0.65;;;;;;;3.07;100.00;95137.31;2071938;28;20202;-57
2022/01/05 04:29:32;;;;;;;0.90;0.60;;;;;;;3.03;100.00;95146.19;2072476;28;20198;-57
2022/01/05 04:30:39;;;;;;;2.88;0.60;;;;;;;3.07;100.00;95134.72;2072100;28;20202;-58
2022/01/05 04:31:41;;;;;;;1.40;0.70;;;;;;;3.12;100.00;95144.78;2072450;28;20736;-57
2022/01/05 04:32:42;;;;;;;1.45;0.63;;;;;;;3.09;99.99;95140.63;2072134;28;20229;-57
2022/01/05 04:34:04;;;;;;;1.10;0.70;;;;;;;3.11;99.35;95143.94;2072219;28;20244;-57
2022/01/05 04:35:25;;;;;;;1.10;0.60;;;;;;;3.10;98.71;95138.88;2071098;28;20217;-58
2022/01/05 04:36:29;;;;;;;1.38;0.60;;;;;;;3.10;97.74;95141.47;2072557;28;20875;-58
2022/01/05 04:37:32;;;;;;;1.10;0.80;;;;;;;3.07;97.48;95154.59;2071494;28;20201;-58
2022/01/05 04:38:33;;;;;;;1.10;0.70;;;;;;;3.08;97.42;95143.31;2071733;28;20205;-58
2022/01/05 04:39:36;;;;;;;0.80;0.63;;;;;;;3.06;96.44;95158.94;2069722;28;20209;-58
2022/01/05 04:40:37;;;;;;;0.82;0.60;;;;;;;3.00;96.66;95161.06;2072558;28;20197;-58
2022/01/05 04:41:39;;;;;;;0.90;0.70;;;;;;;3.00;97.24;95164.50;2071850;28;20200;-58
2022/01/05 04:42:40;;;;;;;4.60;2.15;;;;;;;3.00;96.54;95164.50;2071335;28;20225;-58
2022/01/05 04:43:42;;;;;;;1.40;0.80;;;;;;;2.99;96.59;95160.22;2072315;28;20194;-58
2022/01/05 04:44:43;;;;;;;1.80;1.05;;;;;;;2.93;95.71;95156.25;2072481;28;20626;-58
2022/01/05 04:45:45;;;;;;;1.08;0.80;;;;;;;2.94;95.56;95163.09;2072195;28;20197;-58
2022/01/05 04:46:46;;;;;;;0.70;0.52;;;;;;;2.97;94.50;95160.31;2072410;28;20219;-58
2022/01/05 04:47:48;;;;;;;1.10;0.70;;;;;;;2.96;95.63;95179.38;2072054;28;20221;-58
2022/01/05 04:48:50;;;;;;;0.80;0.60;;;;;;;2.97;94.98;95183.59;2072545;28;20220;-58
2022/01/05 04:49:51;;;;;;;1.48;0.90;;;;;;;2.92;96.13;95174.44;2072217;28;20204;-58
2022/01/05 04:50:53;;;;;;;1.50;0.70;;;;;;;2.87;95.83;95177.31;2072405;28;20205;-58
2022/01/05 04:51:54;;;;;;;0.93;0.63;;;;;;;2.92;94.94;95190.81;2072492;28;20205;-58
2022/01/05 04:52:56;;;;;;;0.80;0.60;;;;;;;2.89;96.26;95187.59;2071931;28;20256;-58
2022/01/05 04:53:58;;;;;;;2.88;0.85;;;;;;;2.82;96.09;95178.53;2072141;28;20203;-58
2022/01/05 04:54:59;;;;;;;0.80;0.73;;;;;;;2.83;96.16;95193.13;2072471;28;20549;-58
2022/01/05 04:56:00;;;;;;;0.90;0.70;;;;;;;2.77;96.62;95181.41;2071823;28;20209;-58